sensor_id;sensor_type;location;lat;lon;timestamp;P1;durP1;ratioP1;P2;durP2;ratioP2
22812;SDS011;11573;51.334;3.244;2022-08-11T00:01:05;7.57;;;4.25;;
22812;SDS011;11573;51.334;3.244;2022-08-11T00:03:36;11.48;;;4.43;;
22812;SDS011;11573;51.334;3.244;2022-08-11T00:06:37;8.23;;;4.50;;
22812;SDS011;11573;51.334;3.244;2022-08-11T00:09:09;12.52;;;4.50;;
22812;SDS011;11573;51.334;3.244;2022-08-11T00:14:19;5.40;;;3.97;;
22812;SDS011;11573;51.334;3.244;2022-08-11T00:16:55;13.02;;;5.30;;
22812;SDS011;11573;51.334;3.244;2022-08-11T00:19:24;9.37;;;5.03;;
22812;SDS011;11573;51.334;3.244;2022-08-11T00:22:19;10.32;;;4.93;;
22812;SDS011;11573;51.334;3.244;2022-08-11T00:24:47;11.55;;;4.88;;
22812;SDS011;11573;51.334;3.244;2022-08-11T00:27:31;6.50;;;4.53;;
22812;SDS011;11573;51.334;3.244;2022-08-11T00:29:59;7.05;;;4.20;;
22812;SDS011;11573;51.334;3.244;2022-08-11T00:32:27;12.95;;;5.22;;
22812;SDS011;11573;51.334;3.244;2022-08-11T00:34:56;6.95;;;4.63;;
22812;SDS011;11573;51.334;3.244;2022-08-11T00:37:49;6.35;;;4.68;;
22812;SDS011;11573;51.334;3.244;2022-08-11T00:40:38;7.82;;;4.38;;
22812;SDS011;11573;51.334;3.244;2022-08-11T00:43:21;8.20;;;4.55;;
22812;SDS011;11573;51.334;3.244;2022-08-11T00:54:33;7.13;;;4.50;;
22812;SDS011;11573;51.334;3.244;2022-08-11T01:00:13;12.25;;;4.10;;
22812;SDS011;11573;51.334;3.244;2022-08-11T01:02:58;6.88;;;4.75;;
22812;SDS011;11573;51.334;3.244;2022-08-11T01:05:44;5.70;;;4.22;;
22812;SDS011;11573;51.334;3.244;2022-08-11T01:14:24;6.72;;;4.90;;
22812;SDS011;11573;51.334;3.244;2022-08-11T01:35:26;9.27;;;4.93;;
22812;SDS011;11573;51.334;3.244;2022-08-11T01:47:34;5.93;;;4.70;;
22812;SDS011;11573;51.334;3.244;2022-08-11T01:59:30;7.10;;;4.60;;
22812;SDS011;11573;51.334;3.244;2022-08-11T02:07:44;6.53;;;4.65;;
22812;SDS011;11573;51.334;3.244;2022-08-11T02:10:23;7.32;;;5.07;;
22812;SDS011;11573;51.334;3.244;2022-08-11T02:22:02;7.30;;;5.13;;
22812;SDS011;11573;51.334;3.244;2022-08-11T02:24:57;8.05;;;4.82;;
22812;SDS011;11573;51.334;3.244;2022-08-11T02:30:23;7.22;;;4.43;;
22812;SDS011;11573;51.334;3.244;2022-08-11T02:38:59;5.43;;;4.38;;
22812;SDS011;11573;51.334;3.244;2022-08-11T02:41:56;5.90;;;3.78;;
22812;SDS011;11573;51.334;3.244;2022-08-11T02:48:07;7.20;;;4.13;;
22812;SDS011;11573;51.334;3.244;2022-08-11T02:53:53;6.55;;;3.88;;
22812;SDS011;11573;51.334;3.244;2022-08-11T02:56:41;7.18;;;4.40;;
22812;SDS011;11573;51.334;3.244;2022-08-11T02:59:36;6.63;;;3.63;;
22812;SDS011;11573;51.334;3.244;2022-08-11T03:08:02;6.30;;;4.20;;
22812;SDS011;11573;51.334;3.244;2022-08-11T03:10:43;5.57;;;4.45;;
22812;SDS011;11573;51.334;3.244;2022-08-11T03:13:50;7.97;;;4.70;;
22812;SDS011;11573;51.334;3.244;2022-08-11T03:20:07;8.88;;;4.32;;
22812;SDS011;11573;51.334;3.244;2022-08-11T03:26:02;6.22;;;4.65;;
22812;SDS011;11573;51.334;3.244;2022-08-11T03:35:35;7.82;;;4.80;;
22812;SDS011;11573;51.334;3.244;2022-08-11T03:38:07;12.18;;;5.07;;
22812;SDS011;11573;51.334;3.244;2022-08-11T03:44:09;8.10;;;4.78;;
22812;SDS011;11573;51.334;3.244;2022-08-11T03:55:07;8.48;;;5.10;;
22812;SDS011;11573;51.334;3.244;2022-08-11T03:57:52;8.30;;;5.95;;
22812;SDS011;11573;51.334;3.244;2022-08-11T04:06:52;7.10;;;5.20;;
22812;SDS011;11573;51.334;3.244;2022-08-11T04:12:46;7.70;;;5.30;;
22812;SDS011;11573;51.334;3.244;2022-08-11T04:26:59;7.43;;;4.88;;
22812;SDS011;11573;51.334;3.244;2022-08-11T05:07:34;9.40;;;5.60;;
22812;SDS011;11573;51.334;3.244;2022-08-11T05:13:30;8.50;;;5.20;;
22812;SDS011;11573;51.334;3.244;2022-08-11T05:16:20;7.07;;;5.15;;
22812;SDS011;11573;51.334;3.244;2022-08-11T05:19:15;11.40;;;4.90;;
22812;SDS011;11573;51.334;3.244;2022-08-11T05:22:05;8.23;;;4.72;;
22812;SDS011;11573;51.334;3.244;2022-08-11T05:25:08;8.00;;;4.57;;
22812;SDS011;11573;51.334;3.244;2022-08-11T05:28:27;6.88;;;4.90;;
22812;SDS011;11573;51.334;3.244;2022-08-11T05:31:14;7.85;;;5.03;;
22812;SDS011;11573;51.334;3.244;2022-08-11T05:34:06;8.02;;;5.13;;
22812;SDS011;11573;51.334;3.244;2022-08-11T05:37:03;11.07;;;5.40;;
22812;SDS011;11573;51.334;3.244;2022-08-11T05:39:54;12.18;;;5.65;;
22812;SDS011;11573;51.334;3.244;2022-08-11T05:42:56;8.02;;;5.05;;
22812;SDS011;11573;51.334;3.244;2022-08-11T05:45:54;8.48;;;5.47;;
22812;SDS011;11573;51.334;3.244;2022-08-11T05:48:48;5.57;;;4.90;;
22812;SDS011;11573;51.334;3.244;2022-08-11T05:51:41;8.85;;;5.13;;
22812;SDS011;11573;51.334;3.244;2022-08-11T05:54:37;8.20;;;5.13;;
22812;SDS011;11573;51.334;3.244;2022-08-11T05:57:32;8.43;;;5.53;;
22812;SDS011;11573;51.334;3.244;2022-08-11T06:00:17;12.18;;;5.53;;
22812;SDS011;11573;51.334;3.244;2022-08-11T06:02:50;9.45;;;5.90;;
22812;SDS011;11573;51.334;3.244;2022-08-11T06:05:24;10.77;;;5.30;;
22812;SDS011;11573;51.334;3.244;2022-08-11T06:08:09;15.27;;;6.10;;
22812;SDS011;11573;51.334;3.244;2022-08-11T06:10:39;16.92;;;6.22;;
22812;SDS011;11573;51.334;3.244;2022-08-11T06:13:08;7.15;;;6.03;;
22812;SDS011;11573;51.334;3.244;2022-08-11T06:15:43;12.15;;;6.10;;
22812;SDS011;11573;51.334;3.244;2022-08-11T06:20:46;10.90;;;5.63;;
22812;SDS011;11573;51.334;3.244;2022-08-11T06:23:20;10.15;;;5.95;;
22812;SDS011;11573;51.334;3.244;2022-08-11T06:25:51;10.07;;;4.78;;
22812;SDS011;11573;51.334;3.244;2022-08-11T06:28:30;11.15;;;6.00;;
22812;SDS011;11573;51.334;3.244;2022-08-11T06:31:01;11.82;;;6.20;;
22812;SDS011;11573;51.334;3.244;2022-08-11T06:33:52;10.38;;;6.57;;
22812;SDS011;11573;51.334;3.244;2022-08-11T06:36:54;12.30;;;6.35;;
22812;SDS011;11573;51.334;3.244;2022-08-11T06:42:10;12.13;;;6.47;;
22812;SDS011;11573;51.334;3.244;2022-08-11T06:44:43;10.95;;;5.78;;
22812;SDS011;11573;51.334;3.244;2022-08-11T06:47:35;14.38;;;6.93;;
22812;SDS011;11573;51.334;3.244;2022-08-11T06:50:06;8.80;;;5.97;;
22812;SDS011;11573;51.334;3.244;2022-08-11T06:55:23;9.30;;;6.85;;
22812;SDS011;11573;51.334;3.244;2022-08-11T06:58:25;12.00;;;6.80;;
22812;SDS011;11573;51.334;3.244;2022-08-11T07:01:18;8.80;;;6.38;;
22812;SDS011;11573;51.334;3.244;2022-08-11T07:04:20;11.10;;;6.70;;
22812;SDS011;11573;51.334;3.244;2022-08-11T07:10:24;10.80;;;6.30;;
22812;SDS011;11573;51.334;3.244;2022-08-11T07:13:32;15.15;;;6.50;;
22812;SDS011;11573;51.334;3.244;2022-08-11T07:16:22;10.57;;;6.32;;
22812;SDS011;11573;51.334;3.244;2022-08-11T07:19:01;9.80;;;6.13;;
22812;SDS011;11573;51.334;3.244;2022-08-11T07:21:49;9.80;;;5.83;;
22812;SDS011;11573;51.334;3.244;2022-08-11T07:24:38;14.05;;;6.90;;
22812;SDS011;11573;51.334;3.244;2022-08-11T07:27:35;11.93;;;6.90;;
22812;SDS011;11573;51.334;3.244;2022-08-11T07:30:26;8.40;;;7.30;;
22812;SDS011;11573;51.334;3.244;2022-08-11T07:32:55;11.10;;;6.20;;
22812;SDS011;11573;51.334;3.244;2022-08-11T07:38:15;12.57;;;7.47;;
22812;SDS011;11573;51.334;3.244;2022-08-11T07:40:50;10.95;;;6.50;;
22812;SDS011;11573;51.334;3.244;2022-08-11T07:43:17;13.20;;;8.48;;
22812;SDS011;11573;51.334;3.244;2022-08-11T07:45:45;15.35;;;8.35;;
22812;SDS011;11573;51.334;3.244;2022-08-11T07:48:31;10.48;;;7.15;;
22812;SDS011;11573;51.334;3.244;2022-08-11T07:51:18;10.20;;;7.32;;
22812;SDS011;11573;51.334;3.244;2022-08-11T07:54:05;14.02;;;7.82;;
22812;SDS011;11573;51.334;3.244;2022-08-11T07:56:42;14.50;;;7.53;;
22812;SDS011;11573;51.334;3.244;2022-08-11T07:59:31;10.52;;;7.88;;
22812;SDS011;11573;51.334;3.244;2022-08-11T08:02:37;14.33;;;6.70;;
22812;SDS011;11573;51.334;3.244;2022-08-11T08:05:23;13.43;;;7.03;;
22812;SDS011;11573;51.334;3.244;2022-08-11T08:08:10;13.23;;;8.07;;
22812;SDS011;11573;51.334;3.244;2022-08-11T08:10:59;11.75;;;6.72;;
22812;SDS011;11573;51.334;3.244;2022-08-11T08:13:52;9.55;;;7.35;;
22812;SDS011;11573;51.334;3.244;2022-08-11T08:16:39;11.30;;;7.43;;
22812;SDS011;11573;51.334;3.244;2022-08-11T08:19:26;15.18;;;8.40;;
22812;SDS011;11573;51.334;3.244;2022-08-11T08:21:53;9.70;;;7.80;;
22812;SDS011;11573;51.334;3.244;2022-08-11T08:24:37;15.55;;;8.05;;
22812;SDS011;11573;51.334;3.244;2022-08-11T08:27:07;12.85;;;7.88;;
22812;SDS011;11573;51.334;3.244;2022-08-11T08:29:38;16.45;;;7.10;;
22812;SDS011;11573;51.334;3.244;2022-08-11T08:32:24;11.52;;;6.40;;
22812;SDS011;11573;51.334;3.244;2022-08-11T08:34:53;10.85;;;7.13;;
22812;SDS011;11573;51.334;3.244;2022-08-11T08:37:23;15.93;;;7.18;;
22812;SDS011;11573;51.334;3.244;2022-08-11T08:40:12;10.05;;;7.13;;
22812;SDS011;11573;51.334;3.244;2022-08-11T08:42:40;12.15;;;6.93;;
22812;SDS011;11573;51.334;3.244;2022-08-11T08:45:16;13.05;;;7.30;;
22812;SDS011;11573;51.334;3.244;2022-08-11T08:47:45;14.70;;;8.15;;
22812;SDS011;11573;51.334;3.244;2022-08-11T08:50:19;12.30;;;8.17;;
22812;SDS011;11573;51.334;3.244;2022-08-11T08:52:59;17.08;;;8.00;;
22812;SDS011;11573;51.334;3.244;2022-08-11T08:55:30;13.00;;;7.47;;
22812;SDS011;11573;51.334;3.244;2022-08-11T08:57:58;15.43;;;8.07;;
22812;SDS011;11573;51.334;3.244;2022-08-11T09:00:36;18.30;;;7.95;;
22812;SDS011;11573;51.334;3.244;2022-08-11T09:03:06;18.90;;;7.82;;
22812;SDS011;11573;51.334;3.244;2022-08-11T09:05:54;11.23;;;6.80;;
22812;SDS011;11573;51.334;3.244;2022-08-11T09:08:21;15.80;;;7.18;;
22812;SDS011;11573;51.334;3.244;2022-08-11T09:10:50;13.48;;;7.32;;
22812;SDS011;11573;51.334;3.244;2022-08-11T09:13:39;15.43;;;6.95;;
22812;SDS011;11573;51.334;3.244;2022-08-11T09:16:10;15.60;;;6.95;;
22812;SDS011;11573;51.334;3.244;2022-08-11T09:18:37;11.63;;;6.65;;
22812;SDS011;11573;51.334;3.244;2022-08-11T09:21:06;23.63;;;6.47;;
22812;SDS011;11573;51.334;3.244;2022-08-11T09:23:33;14.15;;;6.40;;
22812;SDS011;11573;51.334;3.244;2022-08-11T09:26:39;16.92;;;6.35;;
22812;SDS011;11573;51.334;3.244;2022-08-11T09:29:26;14.43;;;6.18;;
22812;SDS011;11573;51.334;3.244;2022-08-11T09:31:55;16.80;;;6.22;;
22812;SDS011;11573;51.334;3.244;2022-08-11T09:34:23;8.02;;;5.28;;
22812;SDS011;11573;51.334;3.244;2022-08-11T09:36:54;14.98;;;6.03;;
22812;SDS011;11573;51.334;3.244;2022-08-11T09:40:02;11.98;;;5.85;;
22812;SDS011;11573;51.334;3.244;2022-08-11T09:42:52;9.60;;;5.35;;
22812;SDS011;11573;51.334;3.244;2022-08-11T09:45:48;10.38;;;5.10;;
22812;SDS011;11573;51.334;3.244;2022-08-11T09:48:18;9.63;;;4.82;;
22812;SDS011;11573;51.334;3.244;2022-08-11T09:50:51;12.35;;;4.55;;
22812;SDS011;11573;51.334;3.244;2022-08-11T09:53:20;9.68;;;4.25;;
22812;SDS011;11573;51.334;3.244;2022-08-11T09:56:03;9.07;;;4.20;;
22812;SDS011;11573;51.334;3.244;2022-08-11T09:58:52;10.15;;;4.65;;
22812;SDS011;11573;51.334;3.244;2022-08-11T10:01:19;11.80;;;4.78;;
22812;SDS011;11573;51.334;3.244;2022-08-11T10:03:58;9.27;;;4.68;;
22812;SDS011;11573;51.334;3.244;2022-08-11T10:06:29;14.32;;;5.18;;
22812;SDS011;11573;51.334;3.244;2022-08-11T10:09:20;15.63;;;5.43;;
22812;SDS011;11573;51.334;3.244;2022-08-11T10:11:51;10.70;;;5.22;;
22812;SDS011;11573;51.334;3.244;2022-08-11T10:14:24;13.35;;;5.93;;
22812;SDS011;11573;51.334;3.244;2022-08-11T10:17:11;14.93;;;6.40;;
22812;SDS011;11573;51.334;3.244;2022-08-11T10:19:39;12.50;;;6.28;;
22812;SDS011;11573;51.334;3.244;2022-08-11T10:22:08;13.50;;;6.60;;
22812;SDS011;11573;51.334;3.244;2022-08-11T10:24:58;13.38;;;6.70;;
22812;SDS011;11573;51.334;3.244;2022-08-11T10:27:45;12.15;;;5.95;;
22812;SDS011;11573;51.334;3.244;2022-08-11T10:30:40;23.50;;;7.60;;
22812;SDS011;11573;51.334;3.244;2022-08-11T10:33:39;13.05;;;6.60;;
22812;SDS011;11573;51.334;3.244;2022-08-11T10:36:30;8.48;;;6.95;;
22812;SDS011;11573;51.334;3.244;2022-08-11T10:39:09;13.43;;;7.57;;
22812;SDS011;11573;51.334;3.244;2022-08-11T10:41:44;11.82;;;8.05;;
22812;SDS011;11573;51.334;3.244;2022-08-11T10:44:36;13.10;;;8.40;;
22812;SDS011;11573;51.334;3.244;2022-08-11T10:47:05;19.48;;;8.95;;
22812;SDS011;11573;51.334;3.244;2022-08-11T10:49:52;11.45;;;8.85;;
22812;SDS011;11573;51.334;3.244;2022-08-11T10:52:38;16.02;;;9.38;;
22812;SDS011;11573;51.334;3.244;2022-08-11T10:55:24;11.93;;;8.43;;
22812;SDS011;11573;51.334;3.244;2022-08-11T10:58:11;19.05;;;10.52;;
22812;SDS011;11573;51.334;3.244;2022-08-11T11:00:57;14.73;;;10.05;;
22812;SDS011;11573;51.334;3.244;2022-08-11T11:03:27;13.48;;;8.85;;
22812;SDS011;11573;51.334;3.244;2022-08-11T11:05:57;16.05;;;8.90;;
22812;SDS011;11573;51.334;3.244;2022-08-11T11:08:55;15.95;;;10.18;;
22812;SDS011;11573;51.334;3.244;2022-08-11T11:11:37;13.70;;;9.35;;
22812;SDS011;11573;51.334;3.244;2022-08-11T11:14:30;17.80;;;9.63;;
22812;SDS011;11573;51.334;3.244;2022-08-11T11:17:29;14.32;;;9.80;;
22812;SDS011;11573;51.334;3.244;2022-08-11T11:20:20;14.18;;;10.27;;
22812;SDS011;11573;51.334;3.244;2022-08-11T11:25:48;15.00;;;9.15;;
22812;SDS011;11573;51.334;3.244;2022-08-11T11:28:37;10.88;;;8.55;;
22812;SDS011;11573;51.334;3.244;2022-08-11T11:34:44;16.67;;;10.40;;
22812;SDS011;11573;51.334;3.244;2022-08-11T11:37:24;16.95;;;9.27;;
22812;SDS011;11573;51.334;3.244;2022-08-11T11:39:54;17.10;;;10.07;;
22812;SDS011;11573;51.334;3.244;2022-08-11T11:42:23;12.65;;;8.60;;
22812;SDS011;11573;51.334;3.244;2022-08-11T11:44:51;13.48;;;9.40;;
22812;SDS011;11573;51.334;3.244;2022-08-11T11:47:22;15.88;;;9.27;;
22812;SDS011;11573;51.334;3.244;2022-08-11T11:49:50;18.10;;;8.90;;
22812;SDS011;11573;51.334;3.244;2022-08-11T11:52:19;16.73;;;9.60;;
22812;SDS011;11573;51.334;3.244;2022-08-11T11:54:47;12.23;;;9.77;;
22812;SDS011;11573;51.334;3.244;2022-08-11T11:57:19;11.10;;;8.35;;
22812;SDS011;11573;51.334;3.244;2022-08-11T12:00:06;19.35;;;11.45;;
22812;SDS011;11573;51.334;3.244;2022-08-11T12:03:01;18.38;;;10.73;;
22812;SDS011;11573;51.334;3.244;2022-08-11T12:05:33;17.55;;;12.23;;
22812;SDS011;11573;51.334;3.244;2022-08-11T12:08:01;16.52;;;10.82;;
22812;SDS011;11573;51.334;3.244;2022-08-11T12:13:13;16.63;;;11.40;;
22812;SDS011;11573;51.334;3.244;2022-08-11T12:16:00;15.02;;;12.27;;
22812;SDS011;11573;51.334;3.244;2022-08-11T12:18:50;18.65;;;12.98;;
22812;SDS011;11573;51.334;3.244;2022-08-11T12:21:20;15.63;;;11.57;;
22812;SDS011;11573;51.334;3.244;2022-08-11T12:23:49;17.17;;;11.65;;
22812;SDS011;11573;51.334;3.244;2022-08-11T12:29:28;17.48;;;12.80;;
22812;SDS011;11573;51.334;3.244;2022-08-11T12:31:55;20.52;;;11.60;;
22812;SDS011;11573;51.334;3.244;2022-08-11T12:34:25;14.48;;;11.07;;
22812;SDS011;11573;51.334;3.244;2022-08-11T12:36:55;20.23;;;12.35;;
22812;SDS011;11573;51.334;3.244;2022-08-11T12:39:26;15.88;;;10.80;;
22812;SDS011;11573;51.334;3.244;2022-08-11T12:42:37;19.60;;;11.52;;
22812;SDS011;11573;51.334;3.244;2022-08-11T12:45:24;16.75;;;12.48;;
22812;SDS011;11573;51.334;3.244;2022-08-11T12:48:09;16.95;;;12.43;;
22812;SDS011;11573;51.334;3.244;2022-08-11T12:51:19;14.35;;;9.88;;
22812;SDS011;11573;51.334;3.244;2022-08-11T12:55:14;19.30;;;10.40;;
22812;SDS011;11573;51.334;3.244;2022-08-11T13:00:08;15.32;;;9.55;;
22812;SDS011;11573;51.334;3.244;2022-08-11T13:02:54;19.50;;;11.35;;
22812;SDS011;11573;51.334;3.244;2022-08-11T13:05:41;15.57;;;10.82;;
22812;SDS011;11573;51.334;3.244;2022-08-11T13:08:10;18.30;;;10.52;;
22812;SDS011;11573;51.334;3.244;2022-08-11T13:10:42;19.05;;;9.75;;
22812;SDS011;11573;51.334;3.244;2022-08-11T13:13:29;17.20;;;10.88;;
22812;SDS011;11573;51.334;3.244;2022-08-11T13:16:17;16.83;;;8.30;;
22812;SDS011;11573;51.334;3.244;2022-08-11T13:18:46;13.60;;;7.88;;
22812;SDS011;11573;51.334;3.244;2022-08-11T13:21:13;17.02;;;9.45;;
22812;SDS011;11573;51.334;3.244;2022-08-11T13:23:47;17.40;;;9.40;;
22812;SDS011;11573;51.334;3.244;2022-08-11T13:26:35;13.25;;;8.07;;
22812;SDS011;11573;51.334;3.244;2022-08-11T13:29:23;11.00;;;8.55;;
22812;SDS011;11573;51.334;3.244;2022-08-11T13:31:53;14.90;;;7.88;;
22812;SDS011;11573;51.334;3.244;2022-08-11T13:34:23;13.32;;;8.07;;
22812;SDS011;11573;51.334;3.244;2022-08-11T13:36:53;15.50;;;7.60;;
22812;SDS011;11573;51.334;3.244;2022-08-11T13:39:22;13.63;;;7.70;;
22812;SDS011;11573;51.334;3.244;2022-08-11T13:41:53;13.68;;;7.15;;
22812;SDS011;11573;51.334;3.244;2022-08-11T13:44:23;14.82;;;7.45;;
22812;SDS011;11573;51.334;3.244;2022-08-11T13:46:56;9.40;;;6.63;;
22812;SDS011;11573;51.334;3.244;2022-08-11T13:49:30;13.93;;;6.80;;
22812;SDS011;11573;51.334;3.244;2022-08-11T13:51:58;13.73;;;7.40;;
22812;SDS011;11573;51.334;3.244;2022-08-11T13:54:27;10.77;;;6.13;;
22812;SDS011;11573;51.334;3.244;2022-08-11T13:57:00;13.50;;;6.38;;
22812;SDS011;11573;51.334;3.244;2022-08-11T13:59:33;13.82;;;6.25;;
22812;SDS011;11573;51.334;3.244;2022-08-11T14:02:17;11.00;;;6.07;;
22812;SDS011;11573;51.334;3.244;2022-08-11T14:05:07;16.73;;;6.75;;
22812;SDS011;11573;51.334;3.244;2022-08-11T14:07:38;18.48;;;6.88;;
22812;SDS011;11573;51.334;3.244;2022-08-11T14:10:15;8.23;;;5.15;;
22812;SDS011;11573;51.334;3.244;2022-08-11T14:13:01;13.30;;;5.75;;
22812;SDS011;11573;51.334;3.244;2022-08-11T14:18:23;11.63;;;5.57;;
22812;SDS011;11573;51.334;3.244;2022-08-11T14:20:54;7.97;;;5.18;;
22812;SDS011;11573;51.334;3.244;2022-08-11T14:23:46;10.63;;;4.93;;
22812;SDS011;11573;51.334;3.244;2022-08-11T14:26:21;10.98;;;5.45;;
22812;SDS011;11573;51.334;3.244;2022-08-11T14:28:56;14.13;;;5.43;;
22812;SDS011;11573;51.334;3.244;2022-08-11T14:31:28;9.43;;;5.15;;
22812;SDS011;11573;51.334;3.244;2022-08-11T14:34:02;6.63;;;4.13;;
22812;SDS011;11573;51.334;3.244;2022-08-11T14:36:36;7.95;;;4.90;;
22812;SDS011;11573;51.334;3.244;2022-08-11T14:39:07;9.35;;;4.35;;
22812;SDS011;11573;51.334;3.244;2022-08-11T14:41:39;10.00;;;4.72;;
22812;SDS011;11573;51.334;3.244;2022-08-11T14:44:39;9.23;;;4.32;;
22812;SDS011;11573;51.334;3.244;2022-08-11T14:47:30;11.65;;;4.32;;
22812;SDS011;11573;51.334;3.244;2022-08-11T14:50:03;9.50;;;4.05;;
22812;SDS011;11573;51.334;3.244;2022-08-11T14:52:37;7.20;;;3.97;;
22812;SDS011;11573;51.334;3.244;2022-08-11T14:55:15;10.80;;;4.38;;
22812;SDS011;11573;51.334;3.244;2022-08-11T14:58:02;7.63;;;3.75;;
22812;SDS011;11573;51.334;3.244;2022-08-11T15:00:31;10.07;;;4.35;;
22812;SDS011;11573;51.334;3.244;2022-08-11T15:03:00;7.22;;;4.40;;
22812;SDS011;11573;51.334;3.244;2022-08-11T15:05:37;7.68;;;3.70;;
22812;SDS011;11573;51.334;3.244;2022-08-11T15:08:24;6.70;;;3.65;;
22812;SDS011;11573;51.334;3.244;2022-08-11T15:11:14;9.07;;;3.47;;
22812;SDS011;11573;51.334;3.244;2022-08-11T15:14:02;13.40;;;4.47;;
22812;SDS011;11573;51.334;3.244;2022-08-11T15:16:32;7.72;;;3.65;;
22812;SDS011;11573;51.334;3.244;2022-08-11T15:19:18;7.50;;;3.72;;
22812;SDS011;11573;51.334;3.244;2022-08-11T15:21:48;9.85;;;3.85;;
22812;SDS011;11573;51.334;3.244;2022-08-11T15:24:35;8.25;;;3.70;;
22812;SDS011;11573;51.334;3.244;2022-08-11T15:27:12;6.93;;;3.55;;
22812;SDS011;11573;51.334;3.244;2022-08-11T15:30:03;9.30;;;3.45;;
22812;SDS011;11573;51.334;3.244;2022-08-11T15:33:06;7.07;;;3.40;;
22812;SDS011;11573;51.334;3.244;2022-08-11T15:35:53;6.53;;;3.42;;
22812;SDS011;11573;51.334;3.244;2022-08-11T15:38:46;9.95;;;3.42;;
22812;SDS011;11573;51.334;3.244;2022-08-11T15:41:20;13.10;;;4.15;;
22812;SDS011;11573;51.334;3.244;2022-08-11T15:44:21;10.05;;;3.47;;
22812;SDS011;11573;51.334;3.244;2022-08-11T15:47:34;9.57;;;3.38;;
22812;SDS011;11573;51.334;3.244;2022-08-11T15:50:06;6.55;;;2.97;;
22812;SDS011;11573;51.334;3.244;2022-08-11T15:52:47;7.80;;;3.22;;
22812;SDS011;11573;51.334;3.244;2022-08-11T15:55:19;8.73;;;3.10;;
22812;SDS011;11573;51.334;3.244;2022-08-11T15:57:51;11.05;;;3.88;;
22812;SDS011;11573;51.334;3.244;2022-08-11T16:00:38;12.32;;;3.40;;
22812;SDS011;11573;51.334;3.244;2022-08-11T16:03:38;9.07;;;3.57;;
22812;SDS011;11573;51.334;3.244;2022-08-11T16:06:34;9.20;;;3.45;;
22812;SDS011;11573;51.334;3.244;2022-08-11T16:09:19;8.05;;;3.50;;
22812;SDS011;11573;51.334;3.244;2022-08-11T16:11:53;7.28;;;3.70;;
22812;SDS011;11573;51.334;3.244;2022-08-11T16:14:24;13.73;;;5.50;;
22812;SDS011;11573;51.334;3.244;2022-08-11T16:17:12;7.15;;;3.70;;
22812;SDS011;11573;51.334;3.244;2022-08-11T16:19:43;9.85;;;3.53;;
22812;SDS011;11573;51.334;3.244;2022-08-11T16:22:14;7.90;;;3.35;;
22812;SDS011;11573;51.334;3.244;2022-08-11T16:24:58;6.45;;;2.80;;
22812;SDS011;11573;51.334;3.244;2022-08-11T16:27:57;8.05;;;3.55;;
22812;SDS011;11573;51.334;3.244;2022-08-11T16:30:33;8.50;;;3.50;;
22812;SDS011;11573;51.334;3.244;2022-08-11T16:33:02;7.47;;;3.50;;
22812;SDS011;11573;51.334;3.244;2022-08-11T16:35:51;11.40;;;3.28;;
22812;SDS011;11573;51.334;3.244;2022-08-11T16:38:38;9.70;;;3.40;;
22812;SDS011;11573;51.334;3.244;2022-08-11T16:41:08;10.65;;;3.42;;
22812;SDS011;11573;51.334;3.244;2022-08-11T16:43:41;11.80;;;4.07;;
22812;SDS011;11573;51.334;3.244;2022-08-11T16:46:30;8.43;;;3.20;;
22812;SDS011;11573;51.334;3.244;2022-08-11T16:49:28;9.07;;;3.72;;
22812;SDS011;11573;51.334;3.244;2022-08-11T16:52:02;10.80;;;3.88;;
22812;SDS011;11573;51.334;3.244;2022-08-11T16:54:33;10.00;;;3.75;;
22812;SDS011;11573;51.334;3.244;2022-08-11T16:57:09;9.32;;;3.70;;
22812;SDS011;11573;51.334;3.244;2022-08-11T17:00:03;11.80;;;3.83;;
22812;SDS011;11573;51.334;3.244;2022-08-11T17:02:34;10.85;;;3.75;;
22812;SDS011;11573;51.334;3.244;2022-08-11T17:05:25;11.65;;;3.90;;
22812;SDS011;11573;51.334;3.244;2022-08-11T17:08:22;14.23;;;3.92;;
22812;SDS011;11573;51.334;3.244;2022-08-11T17:11:25;11.45;;;4.45;;
22812;SDS011;11573;51.334;3.244;2022-08-11T17:14:14;10.15;;;3.83;;
22812;SDS011;11573;51.334;3.244;2022-08-11T17:17:05;10.20;;;4.13;;
22812;SDS011;11573;51.334;3.244;2022-08-11T17:19:39;8.93;;;3.47;;
22812;SDS011;11573;51.334;3.244;2022-08-11T17:22:31;9.73;;;4.10;;
22812;SDS011;11573;51.334;3.244;2022-08-11T17:25:18;7.35;;;3.97;;
22812;SDS011;11573;51.334;3.244;2022-08-11T17:27:47;12.70;;;4.15;;
22812;SDS011;11573;51.334;3.244;2022-08-11T17:30:16;9.73;;;3.88;;
22812;SDS011;11573;51.334;3.244;2022-08-11T17:32:47;10.23;;;4.20;;
22812;SDS011;11573;51.334;3.244;2022-08-11T17:35:36;7.38;;;3.85;;
22812;SDS011;11573;51.334;3.244;2022-08-11T17:38:07;8.35;;;3.30;;
22812;SDS011;11573;51.334;3.244;2022-08-11T17:40:51;12.35;;;4.47;;
22812;SDS011;11573;51.334;3.244;2022-08-11T17:43:49;10.93;;;3.70;;
22812;SDS011;11573;51.334;3.244;2022-08-11T17:46:37;10.32;;;3.90;;
22812;SDS011;11573;51.334;3.244;2022-08-11T17:49:31;10.77;;;4.07;;
22812;SDS011;11573;51.334;3.244;2022-08-11T17:52:04;10.30;;;3.30;;
22812;SDS011;11573;51.334;3.244;2022-08-11T17:54:50;10.93;;;3.72;;
22812;SDS011;11573;51.334;3.244;2022-08-11T17:57:39;9.63;;;3.80;;
22812;SDS011;11573;51.334;3.244;2022-08-11T18:00:25;12.32;;;5.03;;
22812;SDS011;11573;51.334;3.244;2022-08-11T18:02:53;9.98;;;4.20;;
22812;SDS011;11573;51.334;3.244;2022-08-11T18:05:41;7.10;;;4.15;;
22812;SDS011;11573;51.334;3.244;2022-08-11T18:08:10;9.75;;;4.40;;
22812;SDS011;11573;51.334;3.244;2022-08-11T18:10:58;10.88;;;4.20;;
22812;SDS011;11573;51.334;3.244;2022-08-11T18:14:06;11.27;;;4.22;;
22812;SDS011;11573;51.334;3.244;2022-08-11T18:16:54;9.88;;;4.28;;
22812;SDS011;11573;51.334;3.244;2022-08-11T18:19:40;12.15;;;4.40;;
22812;SDS011;11573;51.334;3.244;2022-08-11T18:22:27;14.90;;;4.53;;
22812;SDS011;11573;51.334;3.244;2022-08-11T18:25:19;8.13;;;3.97;;
22812;SDS011;11573;51.334;3.244;2022-08-11T18:28:11;12.18;;;4.55;;
22812;SDS011;11573;51.334;3.244;2022-08-11T18:30:59;10.70;;;3.97;;
22812;SDS011;11573;51.334;3.244;2022-08-11T18:33:51;11.15;;;4.25;;
22812;SDS011;11573;51.334;3.244;2022-08-11T18:36:39;10.57;;;4.43;;
22812;SDS011;11573;51.334;3.244;2022-08-11T18:39:30;11.35;;;4.60;;
22812;SDS011;11573;51.334;3.244;2022-08-11T18:42:22;8.60;;;4.15;;
22812;SDS011;11573;51.334;3.244;2022-08-11T18:45:09;11.65;;;4.30;;
22812;SDS011;11573;51.334;3.244;2022-08-11T18:48:11;10.50;;;4.38;;
22812;SDS011;11573;51.334;3.244;2022-08-11T18:51:02;10.90;;;4.10;;
22812;SDS011;11573;51.334;3.244;2022-08-11T18:54:03;11.05;;;4.72;;
22812;SDS011;11573;51.334;3.244;2022-08-11T18:56:53;9.25;;;4.03;;
22812;SDS011;11573;51.334;3.244;2022-08-11T18:59:42;9.93;;;4.30;;
22812;SDS011;11573;51.334;3.244;2022-08-11T19:02:30;14.43;;;4.50;;
22812;SDS011;11573;51.334;3.244;2022-08-11T19:05:19;10.68;;;5.00;;
22812;SDS011;11573;51.334;3.244;2022-08-11T19:08:28;10.70;;;4.65;;
22812;SDS011;11573;51.334;3.244;2022-08-11T19:11:16;11.75;;;4.50;;
22812;SDS011;11573;51.334;3.244;2022-08-11T19:14:09;8.63;;;4.45;;
22812;SDS011;11573;51.334;3.244;2022-08-11T19:16:58;12.95;;;5.03;;
22812;SDS011;11573;51.334;3.244;2022-08-11T19:20:05;8.77;;;4.18;;
22812;SDS011;11573;51.334;3.244;2022-08-11T19:22:55;7.65;;;3.70;;
22812;SDS011;11573;51.334;3.244;2022-08-11T19:25:43;9.38;;;4.15;;
22812;SDS011;11573;51.334;3.244;2022-08-11T19:28:30;11.18;;;4.50;;
22812;SDS011;11573;51.334;3.244;2022-08-11T19:31:19;7.55;;;4.20;;
22812;SDS011;11573;51.334;3.244;2022-08-11T19:34:10;9.20;;;4.13;;
22812;SDS011;11573;51.334;3.244;2022-08-11T19:37:00;10.15;;;4.35;;
22812;SDS011;11573;51.334;3.244;2022-08-11T19:39:51;12.57;;;3.92;;